sensor_id;sensor_type;location;lat;lon;timestamp;pressure;altitude;pressure_sealevel;temperature;humidity
36664;BME280;53333;51.976;20.144;2023-04-08T00:00:29;100670.84;;;7.04;67.64
36664;BME280;53333;51.976;20.144;2023-04-08T00:03:02;100668.16;;;7.06;67.46
36664;BME280;53333;51.976;20.144;2023-04-08T00:05:35;100675.25;;;7.05;67.51
36664;BME280;53333;51.976;20.144;2023-04-08T00:08:08;100675.31;;;7.04;67.49
36664;BME280;53333;51.976;20.144;2023-04-08T00:10:41;100670.94;;;7.01;67.39
36664;BME280;53333;51.976;20.144;2023-04-08T00:13:15;100669.22;;;6.99;67.65
36664;BME280;53333;51.976;20.144;2023-04-08T00:15:50;100671.13;;;6.94;67.44
36664;BME280;53333;51.976;20.144;2023-04-08T00:18:22;100666.81;;;6.89;67.75
36664;BME280;53333;51.976;20.144;2023-04-08T00:20:55;100678.34;;;6.88;67.69
36664;BME280;53333;51.976;20.144;2023-04-08T00:23:28;100671.28;;;6.87;67.85
36664;BME280;53333;51.976;20.144;2023-04-08T00:26:19;100674.75;;;6.91;67.88
36664;BME280;53333;51.976;20.144;2023-04-08T00:28:53;100674.91;;;6.85;67.87
36664;BME280;53333;51.976;20.144;2023-04-08T00:31:26;100675.78;;;6.84;67.91
36664;BME280;53333;51.976;20.144;2023-04-08T00:34:02;100675.00;;;6.80;68.05
36664;BME280;53333;51.976;20.144;2023-04-08T00:36:35;100681.22;;;6.79;67.85
36664;BME280;53333;51.976;20.144;2023-04-08T00:39:08;100691.78;;;6.82;67.86
36664;BME280;53333;51.976;20.144;2023-04-08T00:41:41;100686.47;;;6.82;68.11
36664;BME280;53333;51.976;20.144;2023-04-08T00:44:16;100677.66;;;6.80;68.08
36664;BME280;53333;51.976;20.144;2023-04-08T00:46:51;100680.25;;;6.83;68.11
36664;BME280;53333;51.976;20.144;2023-04-08T00:49:25;100674.94;;;6.83;68.18
36664;BME280;53333;51.976;20.144;2023-04-08T00:51:58;100682.88;;;6.85;68.17
36664;BME280;53333;51.976;20.144;2023-04-08T00:54:31;100684.63;;;6.84;68.06
36664;BME280;53333;51.976;20.144;2023-04-08T00:57:04;100683.72;;;6.85;68.10
36664;BME280;53333;51.976;20.144;2023-04-08T00:59:39;100691.72;;;6.84;68.20
36664;BME280;53333;51.976;20.144;2023-04-08T01:02:14;100696.28;;;6.79;68.14
36664;BME280;53333;51.976;20.144;2023-04-08T01:05:03;100691.88;;;6.78;68.18
36664;BME280;53333;51.976;20.144;2023-04-08T01:07:40;100695.47;;;6.77;68.37
36664;BME280;53333;51.976;20.144;2023-04-08T01:10:20;100688.41;;;6.76;68.28
36664;BME280;53333;51.976;20.144;2023-04-08T01:12:55;100699.03;;;6.76;68.42
36664;BME280;53333;51.976;20.144;2023-04-08T01:15:31;100699.94;;;6.73;68.31
36664;BME280;53333;51.976;20.144;2023-04-08T01:18:07;100697.38;;;6.70;68.26
36664;BME280;53333;51.976;20.144;2023-04-08T01:20:41;100699.22;;;6.66;68.38
36664;BME280;53333;51.976;20.144;2023-04-08T01:23:19;100703.69;;;6.66;68.47
36664;BME280;53333;51.976;20.144;2023-04-08T01:25:56;100708.19;;;6.62;68.44
36664;BME280;53333;51.976;20.144;2023-04-08T01:28:30;100710.84;;;6.62;68.35
36664;BME280;53333;51.976;20.144;2023-04-08T01:31:06;100714.38;;;6.63;68.41
36664;BME280;53333;51.976;20.144;2023-04-08T01:33:40;100712.63;;;6.62;68.31
36664;BME280;53333;51.976;20.144;2023-04-08T01:36:13;100713.63;;;6.58;68.41
36664;BME280;53333;51.976;20.144;2023-04-08T01:38:47;100713.38;;;6.67;68.14
36664;BME280;53333;51.976;20.144;2023-04-08T01:41:22;100720.72;;;6.55;68.33
36664;BME280;53333;51.976;20.144;2023-04-08T01:43:56;100726.13;;;6.51;68.29
36664;BME280;53333;51.976;20.144;2023-04-08T01:46:30;100729.75;;;6.48;68.07
36664;BME280;53333;51.976;20.144;2023-04-08T01:49:04;100728.00;;;6.47;68.23
36664;BME280;53333;51.976;20.144;2023-04-08T01:51:40;100726.25;;;6.46;68.04
36664;BME280;53333;51.976;20.144;2023-04-08T01:54:13;100733.28;;;6.47;68.24
36664;BME280;53333;51.976;20.144;2023-04-08T01:56:48;100733.25;;;6.49;67.97
36664;BME280;53333;51.976;20.144;2023-04-08T01:59:29;100733.19;;;6.52;68.02
36664;BME280;53333;51.976;20.144;2023-04-08T02:02:05;100732.31;;;6.53;67.99
36664;BME280;53333;51.976;20.144;2023-04-08T02:04:40;100732.25;;;6.54;67.88
36664;BME280;53333;51.976;20.144;2023-04-08T02:07:13;100722.47;;;6.57;67.80
36664;BME280;53333;51.976;20.144;2023-04-08T02:09:47;100728.34;;;6.71;67.50
36664;BME280;53333;51.976;20.144;2023-04-08T02:12:21;100736.50;;;6.62;67.25
36664;BME280;53333;51.976;20.144;2023-04-08T02:14:54;100725.88;;;6.62;67.31
36664;BME280;53333;51.976;20.144;2023-04-08T02:17:34;100732.06;;;6.64;67.31
36664;BME280;53333;51.976;20.144;2023-04-08T02:20:10;100735.53;;;6.66;67.15
36664;BME280;53333;51.976;20.144;2023-04-08T02:22:48;100728.44;;;6.66;67.16
36664;BME280;53333;51.976;20.144;2023-04-08T02:25:23;100735.50;;;6.67;67.06
36664;BME280;53333;51.976;20.144;2023-04-08T02:27:59;100730.16;;;6.69;67.14
36664;BME280;53333;51.976;20.144;2023-04-08T02:30:33;100732.78;;;6.70;66.92
36664;BME280;53333;51.976;20.144;2023-04-08T02:33:07;100734.44;;;6.75;66.83
36664;BME280;53333;51.976;20.144;2023-04-08T02:35:40;100739.72;;;6.76;66.93
36664;BME280;53333;51.976;20.144;2023-04-08T02:38:14;100744.97;;;6.78;66.65
36664;BME280;53333;51.976;20.144;2023-04-08T02:40:48;100750.28;;;6.78;66.37
36664;BME280;53333;51.976;20.144;2023-04-08T02:43:22;100751.84;;;6.88;66.53
36664;BME280;53333;51.976;20.144;2023-04-08T02:46:00;100748.53;;;6.78;66.26
36664;BME280;53333;51.976;20.144;2023-04-08T02:48:35;100750.41;;;6.73;66.21
36664;BME280;53333;51.976;20.144;2023-04-08T02:51:07;100755.75;;;6.71;66.09
36664;BME280;53333;51.976;20.144;2023-04-08T02:53:40;100758.41;;;6.71;65.93
36664;BME280;53333;51.976;20.144;2023-04-08T02:56:13;100769.94;;;6.70;65.75
36664;BME280;53333;51.976;20.144;2023-04-08T02:58:47;100768.22;;;6.68;65.57
36664;BME280;53333;51.976;20.144;2023-04-08T03:01:23;100777.16;;;6.65;65.60
36664;BME280;53333;51.976;20.144;2023-04-08T03:03:56;100778.91;;;6.65;65.47
36664;BME280;53333;51.976;20.144;2023-04-08T03:06:29;100785.16;;;6.64;65.34
36664;BME280;53333;51.976;20.144;2023-04-08T03:09:02;100778.19;;;6.58;65.33
36664;BME280;53333;51.976;20.144;2023-04-08T03:11:36;100784.38;;;6.57;65.19
36664;BME280;53333;51.976;20.144;2023-04-08T03:14:10;100791.56;;;6.53;65.28
36664;BME280;53333;51.976;20.144;2023-04-08T03:16:43;100794.28;;;6.50;65.18
36664;BME280;53333;51.976;20.144;2023-04-08T03:19:16;100795.19;;;6.49;65.22
36664;BME280;53333;51.976;20.144;2023-04-08T03:21:49;100794.34;;;6.47;65.17
36664;BME280;53333;51.976;20.144;2023-04-08T03:24:22;100789.06;;;6.46;65.26
36664;BME280;53333;51.976;20.144;2023-04-08T03:26:54;100796.19;;;6.44;65.16
36664;BME280;53333;51.976;20.144;2023-04-08T03:29:29;100805.97;;;6.42;65.11
36664;BME280;53333;51.976;20.144;2023-04-08T03:32:01;100806.00;;;6.40;65.18
36664;BME280;53333;51.976;20.144;2023-04-08T03:34:34;100801.56;;;6.41;65.28
36664;BME280;53333;51.976;20.144;2023-04-08T03:37:07;100809.53;;;6.41;65.17
36664;BME280;53333;51.976;20.144;2023-04-08T03:39:40;100810.47;;;6.38;65.03
36664;BME280;53333;51.976;20.144;2023-04-08T03:42:13;100814.91;;;6.38;65.10
36664;BME280;53333;51.976;20.144;2023-04-08T03:44:47;100809.56;;;6.39;65.11
36664;BME280;53333;51.976;20.144;2023-04-08T03:47:20;100820.16;;;6.41;64.99
36664;BME280;53333;51.976;20.144;2023-04-08T03:49:53;100824.59;;;6.40;65.04
36664;BME280;53333;51.976;20.144;2023-04-08T03:52:30;100826.31;;;6.41;64.86
36664;BME280;53333;51.976;20.144;2023-04-08T03:55:03;100823.66;;;6.41;65.00
36664;BME280;53333;51.976;20.144;2023-04-08T03:57:36;100824.53;;;6.43;64.98
36664;BME280;53333;51.976;20.144;2023-04-08T04:00:11;100827.19;;;6.43;64.83
36664;BME280;53333;51.976;20.144;2023-04-08T04:02:44;100830.69;;;6.44;64.79
36664;BME280;53333;51.976;20.144;2023-04-08T04:05:18;100828.88;;;6.46;64.89
36664;BME280;53333;51.976;20.144;2023-04-08T04:07:51;100828.84;;;6.47;64.70
36664;BME280;53333;51.976;20.144;2023-04-08T04:10:23;100835.94;;;6.47;64.86
36664;BME280;53333;51.976;20.144;2023-04-08T04:12:56;100842.22;;;6.43;64.86
36664;BME280;53333;51.976;20.144;2023-04-08T04:15:31;100845.78;;;6.42;64.76
36664;BME280;53333;51.976;20.144;2023-04-08T04:18:03;100850.22;;;6.40;64.87
36664;BME280;53333;51.976;20.144;2023-04-08T04:20:39;100852.91;;;6.38;65.03
36664;BME280;53333;51.976;20.144;2023-04-08T04:23:12;100858.28;;;6.35;64.98
36664;BME280;53333;51.976;20.144;2023-04-08T04:25:45;100854.75;;;6.34;64.92
36664;BME280;53333;51.976;20.144;2023-04-08T04:28:18;100855.59;;;6.36;64.94
36664;BME280;53333;51.976;20.144;2023-04-08T04:30:52;100858.22;;;6.38;64.98
36664;BME280;53333;51.976;20.144;2023-04-08T04:33:27;100868.81;;;6.40;64.84
36664;BME280;53333;51.976;20.144;2023-04-08T04:36:00;100868.72;;;6.44;64.77
36664;BME280;53333;51.976;20.144;2023-04-08T04:38:33;100871.31;;;6.47;64.85
36664;BME280;53333;51.976;20.144;2023-04-08T04:41:06;100871.25;;;6.50;64.89
36664;BME280;53333;51.976;20.144;2023-04-08T04:43:39;100873.91;;;6.50;64.79
36664;BME280;53333;51.976;20.144;2023-04-08T04:46:13;100877.53;;;6.46;64.82
36664;BME280;53333;51.976;20.144;2023-04-08T04:48:46;100884.66;;;6.43;64.73
36664;BME280;53333;51.976;20.144;2023-04-08T04:51:19;100888.31;;;6.39;64.87
36664;BME280;53333;51.976;20.144;2023-04-08T04:53:52;100891.06;;;6.34;64.80
36664;BME280;53333;51.976;20.144;2023-04-08T04:56:25;100885.88;;;6.28;64.95
36664;BME280;53333;51.976;20.144;2023-04-08T04:58:58;100889.50;;;6.22;65.10
36664;BME280;53333;51.976;20.144;2023-04-08T05:01:32;100884.28;;;6.19;65.37
36664;BME280;53333;51.976;20.144;2023-04-08T05:04:05;100888.72;;;6.17;65.39
36664;BME280;53333;51.976;20.144;2023-04-08T05:06:38;100886.09;;;6.15;65.38
36664;BME280;53333;51.976;20.144;2023-04-08T05:09:11;100885.22;;;6.15;65.44
36664;BME280;53333;51.976;20.144;2023-04-08T05:11:44;100885.19;;;6.16;65.45
36664;BME280;53333;51.976;20.144;2023-04-08T05:14:17;100884.31;;;6.17;65.57
36664;BME280;53333;51.976;20.144;2023-04-08T05:16:51;100884.28;;;6.19;65.40
36664;BME280;53333;51.976;20.144;2023-04-08T05:19:24;100890.34;;;6.24;65.44
36664;BME280;53333;51.976;20.144;2023-04-08T05:21:57;100899.97;;;6.30;65.20
36664;BME280;53333;51.976;20.144;2023-04-08T05:24:30;100906.03;;;6.35;65.13
36664;BME280;53333;51.976;20.144;2023-04-08T05:27:03;100905.88;;;6.44;65.15
36664;BME280;53333;51.976;20.144;2023-04-08T05:29:36;100908.34;;;6.53;64.86
36664;BME280;53333;51.976;20.144;2023-04-08T05:32:10;100902.03;;;6.61;64.61
36664;BME280;53333;51.976;20.144;2023-04-08T05:34:43;100894.78;;;6.69;64.68
36664;BME280;53333;51.976;20.144;2023-04-08T05:37:16;100898.06;;;6.80;64.33
36664;BME280;53333;51.976;20.144;2023-04-08T05:39:48;100897.88;;;6.89;64.18
36664;BME280;53333;51.976;20.144;2023-04-08T05:42:25;100909.09;;;7.02;63.87
36664;BME280;53333;51.976;20.144;2023-04-08T05:44:58;100910.63;;;7.13;63.60
36664;BME280;53333;51.976;20.144;2023-04-08T05:47:32;100904.16;;;7.26;63.24
36664;BME280;53333;51.976;20.144;2023-04-08T05:50:06;100907.38;;;7.39;62.76
36664;BME280;53333;51.976;20.144;2023-04-08T05:52:43;100907.97;;;7.52;62.28
36664;BME280;53333;51.976;20.144;2023-04-08T05:55:16;100907.69;;;7.62;62.02
36664;BME280;53333;51.976;20.144;2023-04-08T05:57:49;100906.47;;;7.76;61.59
36664;BME280;53333;51.976;20.144;2023-04-08T06:00:21;100915.97;;;7.86;61.43
36664;BME280;53333;51.976;20.144;2023-04-08T06:02:56;100914.78;;;7.98;61.00
36664;BME280;53333;51.976;20.144;2023-04-08T06:05:30;100911.75;;;8.12;60.71
36664;BME280;53333;51.976;20.144;2023-04-08T06:08:03;100913.13;;;8.27;60.25
36664;BME280;53333;51.976;20.144;2023-04-08T06:10:36;100911.00;;;8.40;59.82
36664;BME280;53333;51.976;20.144;2023-04-08T06:13:09;100915.19;;;8.50;59.58
36664;BME280;53333;51.976;20.144;2023-04-08T06:15:42;100917.53;;;8.61;59.14
36664;BME280;53333;51.976;20.144;2023-04-08T06:18:16;100918.00;;;8.75;58.98
36664;BME280;53333;51.976;20.144;2023-04-08T06:20:49;100919.34;;;8.90;58.67
36664;BME280;53333;51.976;20.144;2023-04-08T06:23:22;100921.56;;;9.05;58.31
36664;BME280;53333;51.976;20.144;2023-04-08T06:25:55;100921.16;;;9.19;58.16
36664;BME280;53333;51.976;20.144;2023-04-08T06:28:28;100919.78;;;9.34;57.74
36664;BME280;53333;51.976;20.144;2023-04-08T06:31:01;100924.69;;;9.48;57.51
36664;BME280;53333;51.976;20.144;2023-04-08T06:33:35;100925.09;;;9.62;57.00
36664;BME280;53333;51.976;20.144;2023-04-08T06:36:08;100937.06;;;9.77;56.51
36664;BME280;53333;51.976;20.144;2023-04-08T06:38:41;100931.22;;;9.93;56.06
36664;BME280;53333;51.976;20.144;2023-04-08T06:41:14;100929.00;;;10.06;55.71
36664;BME280;53333;51.976;20.144;2023-04-08T06:43:47;100932.88;;;10.22;55.40
36664;BME280;53333;51.976;20.144;2023-04-08T06:46:20;100928.84;;;10.37;54.68
36664;BME280;53333;51.976;20.144;2023-04-08T06:48:54;100939.97;;;10.50;54.73
36664;BME280;53333;51.976;20.144;2023-04-08T06:51:27;100942.94;;;10.66;54.13
36664;BME280;53333;51.976;20.144;2023-04-08T06:54:00;100937.84;;;10.83;53.38
36664;BME280;53333;51.976;20.144;2023-04-08T06:56:33;100951.78;;;10.92;53.04
36664;BME280;53333;51.976;20.144;2023-04-08T06:59:06;100950.50;;;11.02;52.54
36664;BME280;53333;51.976;20.144;2023-04-08T07:01:38;100950.03;;;11.14;52.24
36664;BME280;53333;51.976;20.144;2023-04-08T07:04:13;100955.66;;;11.30;51.88
36664;BME280;53333;51.976;20.144;2023-04-08T07:06:46;100945.16;;;11.48;51.68
36664;BME280;53333;51.976;20.144;2023-04-08T07:09:19;100962.25;;;11.66;51.26
36664;BME280;53333;51.976;20.144;2023-04-08T07:11:52;100953.06;;;11.73;50.66
36664;BME280;53333;51.976;20.144;2023-04-08T07:14:25;100957.09;;;11.83;50.54
36664;BME280;53333;51.976;20.144;2023-04-08T07:16:58;100956.50;;;11.98;50.13
36664;BME280;53333;51.976;20.144;2023-04-08T07:19:32;100954.97;;;12.13;50.08
36664;BME280;53333;51.976;20.144;2023-04-08T07:22:05;100953.28;;;12.31;49.54
36664;BME280;53333;51.976;20.144;2023-04-08T07:24:38;100955.19;;;12.50;48.86
36664;BME280;53333;51.976;20.144;2023-04-08T07:27:13;100951.81;;;12.65;48.42
36664;BME280;53333;51.976;20.144;2023-04-08T07:29:46;100965.25;;;12.84;48.12
36664;BME280;53333;51.976;20.144;2023-04-08T07:32:23;100960.88;;;13.02;47.49
36664;BME280;53333;51.976;20.144;2023-04-08T07:34:59;100963.47;;;13.23;47.14
36664;BME280;53333;51.976;20.144;2023-04-08T07:37:32;100959.94;;;13.41;46.79
36664;BME280;53333;51.976;20.144;2023-04-08T07:40:06;100972.34;;;13.63;46.26
36664;BME280;53333;51.976;20.144;2023-04-08T07:42:39;100958.00;;;13.81;45.75
36664;BME280;53333;51.976;20.144;2023-04-08T07:45:12;100956.94;;;14.03;45.41
36664;BME280;53333;51.976;20.144;2023-04-08T07:47:45;100957.63;;;14.24;45.10
36664;BME280;53333;51.976;20.144;2023-04-08T07:50:19;100963.56;;;14.48;44.45
36664;BME280;53333;51.976;20.144;2023-04-08T07:52:52;100965.69;;;14.77;43.98
36664;BME280;53333;51.976;20.144;2023-04-08T07:55:25;100957.94;;;15.04;43.44
36664;BME280;53333;51.976;20.144;2023-04-08T07:57:58;100955.28;;;15.36;42.99
36664;BME280;53333;51.976;20.144;2023-04-08T08:00:31;100967.72;;;15.70;42.26
36664;BME280;53333;51.976;20.144;2023-04-08T08:03:04;100959.28;;;15.92;41.81
36664;BME280;53333;51.976;20.144;2023-04-08T08:05:38;100955.63;;;16.24;41.01
36664;BME280;53333;51.976;20.144;2023-04-08T08:08:11;100958.50;;;16.65;40.59
36664;BME280;53333;51.976;20.144;2023-04-08T08:10:44;100958.94;;;17.17;39.39
36664;BME280;53333;51.976;20.144;2023-04-08T08:13:17;100951.56;;;17.75;38.61
36664;BME280;53333;51.976;20.144;2023-04-08T08:15:52;100960.19;;;18.34;37.21
36664;BME280;53333;51.976;20.144;2023-04-08T08:18:25;100951.03;;;19.01;36.55
36664;BME280;53333;51.976;20.144;2023-04-08T08:21:00;100957.19;;;19.90;35.09
36664;BME280;53333;51.976;20.144;2023-04-08T08:23:33;100955.34;;;20.62;33.45
36664;BME280;53333;51.976;20.144;2023-04-08T08:26:07;100951.59;;;21.76;31.85
36664;BME280;53333;51.976;20.144;2023-04-08T08:28:41;100957.41;;;22.78;30.08
36664;BME280;53333;51.976;20.144;2023-04-08T08:31:14;100957.34;;;23.71;29.14
36664;BME280;53333;51.976;20.144;2023-04-08T08:33:46;100954.66;;;24.69;27.71
36664;BME280;53333;51.976;20.144;2023-04-08T08:36:21;100953.84;;;25.79;29.10
36664;BME280;53333;51.976;20.144;2023-04-08T08:38:54;100942.44;;;26.64;26.11
36664;BME280;53333;51.976;20.144;2023-04-08T08:41:32;100946.38;;;27.65;24.52
36664;BME280;53333;51.976;20.144;2023-04-08T08:44:06;100952.66;;;28.49;23.35
36664;BME280;53333;51.976;20.144;2023-04-08T08:46:42;100957.19;;;29.23;21.99
36664;BME280;53333;51.976;20.144;2023-04-08T08:49:16;100962.38;;;29.88;21.54
36664;BME280;53333;51.976;20.144;2023-04-08T08:51:51;100963.00;;;30.45;20.53
36664;BME280;53333;51.976;20.144;2023-04-08T08:54:26;100962.03;;;30.91;20.07
36664;BME280;53333;51.976;20.144;2023-04-08T08:56:59;100963.03;;;31.49;19.35
36664;BME280;53333;51.976;20.144;2023-04-08T08:59:32;100970.53;;;32.29;21.27
36664;BME280;53333;51.976;20.144;2023-04-08T09:02:06;100960.59;;;32.84;22.50
36664;BME280;53333;51.976;20.144;2023-04-08T09:04:56;100957.84;;;33.19;18.94
36664;BME280;53333;51.976;20.144;2023-04-08T09:07:35;100951.13;;;33.42;17.68
36664;BME280;53333;51.976;20.144;2023-04-08T09:10:08;100952.25;;;33.54;17.59
36664;BME280;53333;51.976;20.144;2023-04-08T09:12:53;100958.09;;;33.73;17.01
36664;BME280;53333;51.976;20.144;2023-04-08T09:15:26;100966.13;;;33.61;16.86
36664;BME280;53333;51.976;20.144;2023-04-08T09:17:59;100962.72;;;33.59;16.48
36664;BME280;53333;51.976;20.144;2023-04-08T09:20:32;100971.03;;;33.59;16.37
36664;BME280;53333;51.976;20.144;2023-04-08T09:23:07;100966.03;;;33.41;15.80
36664;BME280;53333;51.976;20.144;2023-04-08T09:25:40;100973.28;;;33.07;16.20
36664;BME280;53333;51.976;20.144;2023-04-08T09:28:18;100962.81;;;33.02;15.66
36664;BME280;53333;51.976;20.144;2023-04-08T09:30:51;100969.47;;;33.08;15.73
36664;BME280;53333;51.976;20.144;2023-04-08T09:33:29;100967.94;;;33.34;15.80
36664;BME280;53333;51.976;20.144;2023-04-08T09:36:02;100961.97;;;33.92;15.65
36664;BME280;53333;51.976;20.144;2023-04-08T09:38:37;100966.53;;;34.53;14.72
36664;BME280;53333;51.976;20.144;2023-04-08T09:41:14;100960.47;;;35.16;14.87
36664;BME280;53333;51.976;20.144;2023-04-08T09:43:49;100962.31;;;35.88;14.16
36664;BME280;53333;51.976;20.144;2023-04-08T09:46:25;100959.44;;;36.33;13.74
36664;BME280;53333;51.976;20.144;2023-04-08T09:49:04;100969.03;;;36.87;13.16
36664;BME280;53333;51.976;20.144;2023-04-08T09:51:40;100967.63;;;37.40;12.58
36664;BME280;53333;51.976;20.144;2023-04-08T09:54:18;100952.22;;;37.87;12.55
36664;BME280;53333;51.976;20.144;2023-04-08T09:57:04;100956.19;;;37.79;12.54
36664;BME280;53333;51.976;20.144;2023-04-08T09:59:51;100953.06;;;37.87;12.74
36664;BME280;53333;51.976;20.144;2023-04-08T10:02:35;100959.63;;;37.93;12.67
36664;BME280;53333;51.976;20.144;2023-04-08T10:05:13;100954.81;;;37.70;12.39
36664;BME280;53333;51.976;20.144;2023-04-08T10:07:47;100960.41;;;37.82;12.08
36664;BME280;53333;51.976;20.144;2023-04-08T10:10:24;100951.28;;;38.05;11.90
36664;BME280;53333;51.976;20.144;2023-04-08T10:12:57;100962.72;;;38.15;12.16
36664;BME280;53333;51.976;20.144;2023-04-08T10:15:31;100969.78;;;38.29;11.41
36664;BME280;53333;51.976;20.144;2023-04-08T10:18:30;100955.06;;;37.13;12.37
36664;BME280;53333;51.976;20.144;2023-04-08T10:21:04;100959.38;;;35.31;13.08
36664;BME280;53333;51.976;20.144;2023-04-08T10:23:58;100951.72;;;35.78;13.50
36664;BME280;53333;51.976;20.144;2023-04-08T10:26:39;100949.47;;;36.50;13.37
36664;BME280;53333;51.976;20.144;2023-04-08T10:29:31;100953.81;;;35.24;13.78
36664;BME280;53333;51.976;20.144;2023-04-08T10:32:05;100952.03;;;34.37;14.12
36664;BME280;53333;51.976;20.144;2023-04-08T10:34:50;100957.16;;;32.54;15.11
36664;BME280;53333;51.976;20.144;2023-04-08T10:37:25;100953.25;;;32.98;14.50
36664;BME280;53333;51.976;20.144;2023-04-08T10:39:57;100949.63;;;33.88;14.56
36664;BME280;53333;51.976;20.144;2023-04-08T10:42:32;100949.00;;;34.92;13.79
36664;BME280;53333;51.976;20.144;2023-04-08T10:45:06;100940.94;;;35.88;13.42
36664;BME280;53333;51.976;20.144;2023-04-08T10:47:39;100943.69;;;36.77;12.85
36664;BME280;53333;51.976;20.144;2023-04-08T10:50:13;100934.69;;;37.68;12.21
36664;BME280;53333;51.976;20.144;2023-04-08T10:52:47;100947.16;;;38.49;11.51
36664;BME280;53333;51.976;20.144;2023-04-08T10:55:22;100947.75;;;38.99;10.60
36664;BME280;53333;51.976;20.144;2023-04-08T10:58:04;100950.25;;;39.36;10.28
36664;BME280;53333;51.976;20.144;2023-04-08T11:00:38;100936.38;;;39.41;10.62
36664;BME280;53333;51.976;20.144;2023-04-08T11:03:11;100943.91;;;38.76;10.75
36664;BME280;53333;51.976;20.144;2023-04-08T11:05:48;100937.91;;;37.83;10.54
36664;BME280;53333;51.976;20.144;2023-04-08T11:08:26;100935.19;;;38.07;10.53
36664;BME280;53333;51.976;20.144;2023-04-08T11:10:59;100949.09;;;38.49;10.71
36664;BME280;53333;51.976;20.144;2023-04-08T11:13:34;100942.66;;;38.96;10.43
36664;BME280;53333;51.976;20.144;2023-04-08T11:16:07;100945.63;;;39.41;10.37
36664;BME280;53333;51.976;20.144;2023-04-08T11:18:49;100943.41;;;39.44;10.18
36664;BME280;53333;51.976;20.144;2023-04-08T11:21:26;100941.47;;;38.02;10.61
36664;BME280;53333;51.976;20.144;2023-04-08T11:24:00;100938.00;;;37.28;10.90
36664;BME280;53333;51.976;20.144;2023-04-08T11:26:33;100930.97;;;35.35;12.60
36664;BME280;53333;51.976;20.144;2023-04-08T11:29:08;100931.19;;;33.60;13.52
36664;BME280;53333;51.976;20.144;2023-04-08T11:31:43;100928.66;;;32.82;13.66
36664;BME280;53333;51.976;20.144;2023-04-08T11:34:21;100922.09;;;31.17;15.04
36664;BME280;53333;51.976;20.144;2023-04-08T11:36:55;100928.03;;;29.99;16.08
36664;BME280;53333;51.976;20.144;2023-04-08T11:39:29;100920.84;;;29.67;16.33
36664;BME280;53333;51.976;20.144;2023-04-08T11:42:02;100922.63;;;29.12;17.15
36664;BME280;53333;51.976;20.144;2023-04-08T11:44:38;100922.13;;;28.11;17.73
36664;BME280;53333;51.976;20.144;2023-04-08T11:47:10;100924.41;;;27.48;18.13
36664;BME280;53333;51.976;20.144;2023-04-08T11:49:43;100920.31;;;27.52;17.90
36664;BME280;53333;51.976;20.144;2023-04-08T11:52:16;100916.53;;;27.53;18.62
36664;BME280;53333;51.976;20.144;2023-04-08T11:54:49;100914.78;;;27.02;18.89
36664;BME280;53333;51.976;20.144;2023-04-08T11:57:27;100905.50;;;27.96;18.53
36664;BME280;53333;51.976;20.144;2023-04-08T12:00:02;100904.81;;;28.02;18.62
36664;BME280;53333;51.976;20.144;2023-04-08T12:02:41;100900.16;;;28.36;18.20
36664;BME280;53333;51.976;20.144;2023-04-08T12:05:17;100911.47;;;28.57;18.12
36664;BME280;53333;51.976;20.144;2023-04-08T12:07:51;100898.94;;;28.55;18.00
36664;BME280;53333;51.976;20.144;2023-04-08T12:10:24;100900.13;;;28.52;18.46
36664;BME280;53333;51.976;20.144;2023-04-08T12:12:57;100899.13;;;28.37;19.25
36664;BME280;53333;51.976;20.144;2023-04-08T12:15:31;100885.59;;;28.11;19.88
36664;BME280;53333;51.976;20.144;2023-04-08T12:18:04;100898.06;;;27.80;19.61
36664;BME280;53333;51.976;20.144;2023-04-08T12:20:37;100901.47;;;27.58;19.12
36664;BME280;53333;51.976;20.144;2023-04-08T12:23:10;100889.19;;;27.27;19.90
36664;BME280;53333;51.976;20.144;2023-04-08T12:25:43;100884.81;;;27.00;20.04
36664;BME280;53333;51.976;20.144;2023-04-08T12:28:15;100882.00;;;26.57;20.50
36664;BME280;53333;51.976;20.144;2023-04-08T12:30:50;100887.78;;;26.28;21.14
36664;BME280;53333;51.976;20.144;2023-04-08T12:33:23;100888.59;;;26.20;21.59
36664;BME280;53333;51.976;20.144;2023-04-08T12:35:55;100885.31;;;26.17;21.14
36664;BME280;53333;51.976;20.144;2023-04-08T12:38:29;100884.69;;;26.05;21.00
36664;BME280;53333;51.976;20.144;2023-04-08T12:41:04;100884.13;;;25.65;21.23
36664;BME280;53333;51.976;20.144;2023-04-08T12:43:38;100886.69;;;24.93;21.61
36664;BME280;53333;51.976;20.144;2023-04-08T12:46:14;100879.28;;;24.28;22.36
36664;BME280;53333;51.976;20.144;2023-04-08T12:48:47;100887.00;;;23.55;23.03
36664;BME280;53333;51.976;20.144;2023-04-08T12:51:34;100886.72;;;22.98;23.80
36664;BME280;53333;51.976;20.144;2023-04-08T12:54:07;100889.72;;;22.64;23.83
36664;BME280;53333;51.976;20.144;2023-04-08T12:56:40;100884.63;;;22.07;24.68
36664;BME280;53333;51.976;20.144;2023-04-08T12:59:13;100889.72;;;21.68;25.55
36664;BME280;53333;51.976;20.144;2023-04-08T13:01:48;100887.59;;;21.28;26.09
36664;BME280;53333;51.976;20.144;2023-04-08T13:04:47;100878.47;;;20.50;26.56
36664;BME280;53333;51.976;20.144;2023-04-08T13:07:24;100882.00;;;19.81;27.86
36664;BME280;53333;51.976;20.144;2023-04-08T13:10:00;100881.00;;;19.34;28.52
36664;BME280;53333;51.976;20.144;2023-04-08T13:12:38;100881.94;;;19.09;29.01
36664;BME280;53333;51.976;20.144;2023-04-08T13:15:14;100876.13;;;19.02;29.64
36664;BME280;53333;51.976;20.144;2023-04-08T13:17:57;100876.19;;;19.13;29.39
36664;BME280;53333;51.976;20.144;2023-04-08T13:20:30;100876.28;;;19.24;29.47
36664;BME280;53333;51.976;20.144;2023-04-08T13:23:03;100879.16;;;19.34;28.45